Time;durP1;ratioP1;P1;durP2;ratioP2;P2;SDS_P1;SDS_P2;PMS_P1;PMS_P2;Temp;Humidity;BMP_temperature;BMP_pressure;BME280_temperature;BME280_humidity;BME280_pressure;Samples;Min_cycle;Max_cycle;Signal;HPM_P1;HPM_P2
2022/05/10 00:00:54;;;;;;;1.73;1.63;;;23.10;58.10;;;;;;5049821;28;20196;-69
2022/05/10 00:03:21;;;;;;;1.40;1.40;;;23.60;58.40;;;;;;5048971;28;20779;-69
2022/05/10 00:05:47;;;;;;;1.67;1.57;;;;;;;;;;5050763;28;20432;-69
2022/05/10 00:08:16;;;;;;;1.40;1.40;;;23.60;58.40;;;;;;5051427;28;20411;-69
2022/05/10 00:10:43;;;;;;;1.20;1.20;;;23.50;56.70;;;;;;5048975;28;20447;-69
2022/05/10 00:13:09;;;;;;;1.50;1.40;;;;;;;;;;5051059;28;20421;-69
2022/05/10 00:15:35;;;;;;;1.40;1.30;;;;;;;;;;5051009;28;20548;-69
2022/05/10 00:18:01;;;;;;;1.50;1.50;;;23.60;58.80;;;;;;5050781;28;20508;-69
2022/05/10 00:20:27;;;;;;;1.20;1.20;;;23.70;75.10;;;;;;5050884;28;20458;-69
2022/05/10 00:22:54;;;;;;;1.10;1.10;;;23.50;56.70;;;;;;5050662;28;20426;-69
2022/05/10 00:25:28;;;;;;;1.30;1.30;;;23.60;58.10;;;;;;5049824;28;20976;-69
2022/05/10 00:27:54;;;;;;;1.00;1.00;;;23.30;85.90;;;;;;5062772;28;20512;-69
2022/05/10 00:30:20;;;;;;;1.00;1.00;;;;;;;;;;5050449;28;20567;-69
2022/05/10 00:32:46;;;;;;;1.53;1.43;;;23.60;56.40;;;;;;5040990;28;21005;-69
2022/05/10 00:35:16;;;;;;;1.20;1.20;;;23.60;58.20;;;;;;5050389;28;20462;-69
2022/05/10 00:37:47;;;;;;;1.50;1.40;;;23.10;60.90;;;;;;5050246;28;20462;-69
2022/05/10 00:40:15;;;;;;;1.30;1.30;;;23.60;58.40;;;;;;5046288;28;20442;-69
2022/05/10 00:42:58;;;;;;;1.17;1.17;;;23.50;55.10;;;;;;5049463;28;20194;-69
2022/05/10 00:45:44;;;;;;;1.40;1.40;;;23.40;67.70;;;;;;5050470;28;20398;-69
2022/05/10 00:48:44;;;;;;;1.10;1.10;;;23.60;55.30;;;;;;5047717;28;20489;-69
2022/05/10 00:51:39;;;;;;;1.57;1.10;;;23.50;82.90;;;;;;5048923;28;20951;-69
2022/05/10 00:54:05;;;;;;;1.70;1.70;;;;;;;;;;5045988;28;20439;-69
2022/05/10 00:56:41;;;;;;;2.40;1.60;;;23.50;58.10;;;;;;5050008;28;20458;-69
2022/05/10 00:59:26;;;;;;;1.40;1.40;;;23.70;55.50;;;;;;5050029;28;20195;-69
2022/05/10 01:01:59;;;;;;;1.00;1.00;;;23.50;58.30;;;;;;5045376;28;20524;-69
2022/05/10 01:04:34;;;;;;;1.20;1.20;;;23.50;58.30;;;;;;5049662;28;20430;-69
2022/05/10 01:07:24;;;;;;;1.63;1.57;;;23.50;61.10;;;;;;5047484;28;20884;-69
2022/05/10 01:09:55;;;;;;;2.35;1.50;;;23.50;58.40;;;;;;5049974;28;20457;-69
2022/05/10 01:12:35;;;;;;;1.30;1.20;;;23.50;55.20;;;;;;5046178;28;20579;-69
2022/05/10 01:15:09;;;;;;;1.33;1.33;;;23.50;55.10;;;;;;5045208;28;20562;-69
2022/05/10 01:17:35;;;;;;;1.40;1.40;;;;;;;;;;5046270;28;20844;-69
2022/05/10 01:20:02;;;;;;;1.30;1.30;;;23.50;56.50;;;;;;5049227;28;20537;-69
2022/05/10 01:22:49;;;;;;;1.90;1.80;;;23.50;55.00;;;;;;5049082;28;20443;-69
2022/05/10 01:25:25;;;;;;;1.37;1.33;;;23.50;55.00;;;;;;5049086;28;20418;-69
2022/05/10 01:28:14;;;;;;;1.17;1.17;;;23.60;86.20;;;;;;5049422;28;20444;-69
2022/05/10 01:30:40;;;;;;;1.30;1.30;;;23.50;57.30;;;;;;5048157;28;20504;-69
2022/05/10 01:33:30;;;;;;;1.27;1.17;;;23.50;55.30;;;;;;5048881;28;20433;-69
2022/05/10 01:36:05;;;;;;;1.60;1.60;;;23.50;55.10;;;;;;5040844;28;20864;-69
2022/05/10 01:38:34;;;;;;;1.17;1.17;;;23.50;58.60;;;;;;5049097;28;20781;-69
2022/05/10 01:41:18;;;;;;;1.50;1.50;;;23.50;58.50;;;;;;5047579;28;20414;-69
2022/05/10 01:43:49;;;;;;;1.17;1.17;;;23.40;64.30;;;;;;5047563;28;20418;-69
2022/05/10 01:46:27;;;;;;;1.37;1.37;;;23.90;55.30;;;;;;5049279;28;20436;-69
2022/05/10 01:49:37;;;;;;;1.30;1.20;;;23.50;58.40;;;;;;5049021;28;20526;-69
2022/05/10 01:52:15;;;;;;;1.50;1.50;;;23.30;86.20;;;;;;5043517;28;20457;-69
2022/05/10 01:54:40;;;;;;;1.40;1.40;;;;;;;;;;5049043;28;20815;-69
2022/05/10 01:57:13;;;;;;;1.53;1.53;;;23.50;55.10;;;;;;5049091;28;20407;-69
2022/05/10 01:59:48;;;;;;;1.30;1.30;;;23.90;58.60;;;;;;5046399;28;20306;-69
2022/05/10 02:02:18;;;;;;;1.20;1.20;;;23.40;58.70;;;;;;5042970;28;20426;-69
2022/05/10 02:04:47;;;;;;;1.47;1.47;;;23.50;66.80;;;;;;5047026;28;20406;-69
2022/05/10 02:07:18;;;;;;;1.50;1.50;;;23.50;66.70;;;;;;5048538;28;20418;-69
2022/05/10 02:09:51;;;;;;;1.38;1.38;;;23.20;62.10;;;;;;5048658;28;20195;-69
2022/05/10 02:12:26;;;;;;;1.30;1.30;;;23.70;59.10;;;;;;5045658;28;20204;-69
2022/05/10 02:15:02;;;;;;;1.40;1.40;;;23.40;66.50;;;;;;5048555;28;20529;-69
2022/05/10 02:17:37;;;;;;;1.20;1.20;;;23.50;55.30;;;;;;5048394;28;21248;-69
2022/05/10 02:20:18;;;;;;;1.40;1.40;;;23.50;61.50;;;;;;5048611;28;20207;-69
2022/05/10 02:23:10;;;;;;;1.20;1.20;;;23.50;55.10;;;;;;5044641;28;20438;-69
2022/05/10 02:25:43;;;;;;;1.17;1.17;;;23.70;71.20;;;;;;5048332;28;20234;-69
2022/05/10 02:28:47;;;;;;;1.10;1.10;;;23.50;66.80;;;;;;5048433;28;20418;-69
2022/05/10 02:31:19;;;;;;;1.30;1.30;;;23.40;61.10;;;;;;5039072;28;20432;-69
2022/05/10 02:33:48;;;;;;;1.20;1.20;;;23.40;58.60;;;;;;5048511;28;20411;-69
2022/05/10 02:36:14;;;;;;;1.20;1.20;;;;;;;;;;5048217;28;20240;-69
2022/05/10 02:38:40;;;;;;;1.27;1.27;;;23.50;58.60;;;;;;5048162;28;20410;-69
2022/05/10 02:41:14;;;;;;;1.10;1.10;;;23.40;55.10;;;;;;5047400;28;20222;-69
2022/05/10 02:43:52;;;;;;;1.13;1.13;;;23.50;61.00;;;;;;5041031;28;20514;-69
2022/05/10 02:46:19;;;;;;;1.30;1.30;;;;;;;;;;5046058;28;20464;-69
2022/05/10 02:48:47;;;;;;;1.33;1.33;;;23.50;66.60;;;;;;5048329;28;20520;-69
2022/05/10 02:51:13;;;;;;;1.20;1.20;;;;;;;;;;5047378;28;20430;-69
2022/05/10 02:53:39;;;;;;;1.53;1.43;;;23.60;70.30;;;;;;5048360;28;20318;-69
2022/05/10 02:56:07;;;;;;;2.40;1.70;;;21.10;57.40;;;;;;5048295;28;20458;-69
2022/05/10 02:58:38;;;;;;;1.40;1.40;;;23.50;55.00;;;;;;5048270;28;20273;-69
2022/05/10 03:01:22;;;;;;;1.07;1.07;;;23.60;58.00;;;;;;5048194;28;20426;-69
2022/05/10 03:03:48;;;;;;;1.80;1.70;;;;;;;;;;5047184;28;20410;-69
2022/05/10 03:06:17;;;;;;;1.43;1.40;;;23.30;66.30;;;;;;5048035;28;20410;-69
2022/05/10 03:08:45;;;;;;;1.98;1.90;;;23.50;57.90;;;;;;5048138;28;20252;-69
2022/05/10 03:11:11;;;;;;;1.63;1.63;;;;;;;;;;5048151;28;20640;-69
2022/05/10 03:13:37;;;;;;;1.00;1.00;;;22.80;63.00;;;;;;5043251;28;20941;-69
2022/05/10 03:16:03;;;;;;;2.77;1.37;;;;;;;;;;5043555;28;20454;-69
2022/05/10 03:18:29;;;;;;;1.07;1.07;;;;;;;;;;5047686;28;20184;-69
2022/05/10 03:20:54;;;;;;;1.20;1.20;;;23.30;76.30;;;;;;5047735;28;20421;-69
2022/05/10 03:23:20;;;;;;;1.52;1.52;;;23.30;82.20;;;;;;5043165;28;20472;-69
2022/05/10 03:25:46;;;;;;;1.70;1.70;;;;;;;;;;5047782;28;20183;-69
2022/05/10 03:28:12;;;;;;;1.60;1.60;;;;;;;;;;5047972;28;20172;-69
2022/05/10 03:30:38;;;;;;;1.37;1.37;;;;;;;;;;5047974;28;20852;-69
2022/05/10 03:33:04;;;;;;;1.10;1.10;;;;;;;;;;5046149;28;20458;-69
2022/05/10 03:35:30;;;;;;;2.70;1.00;;;;;;;;;;5047427;28;20241;-69
2022/05/10 03:37:56;;;;;;;1.60;1.53;;;;;;;;;;5050367;28;20410;-69
2022/05/10 03:40:22;;;;;;;1.07;1.07;;;;;;;;;;5050540;28;20479;-69
2022/05/10 03:42:49;;;;;;;1.17;1.17;;;23.40;58.40;;;;;;5051069;28;20448;-69
2022/05/10 03:45:18;;;;;;;1.40;1.40;;;23.40;58.30;;;;;;5051419;28;20446;-69
2022/05/10 03:47:45;;;;;;;1.50;1.40;;;;;;;;;;5050884;28;20468;-69
2022/05/10 03:50:11;;;;;;;1.73;1.63;;;;;;;;;;5050997;28;20827;-69
2022/05/10 03:52:39;;;;;;;1.20;1.20;;;23.30;58.30;;;;;;5051718;28;20267;-69
2022/05/10 03:55:07;;;;;;;1.27;1.27;;;23.60;58.40;;;;;;5051835;28;20991;-70
2022/05/10 03:57:33;;;;;;;1.23;1.13;;;;;;;;;;5051471;28;20443;-69
2022/05/10 03:59:59;;;;;;;1.30;1.30;;;;;;;;;;5051654;28;20423;-69
2022/05/10 04:02:25;;;;;;;2.40;1.33;;;;;;;;;;5042164;28;20478;-69
2022/05/10 04:04:51;;;;;;;1.37;1.37;;;;;;;;;;5033433;28;20952;-69
2022/05/10 04:07:17;;;;;;;1.57;1.57;;;;;;;;;;5034779;28;20422;-69
2022/05/10 04:09:43;;;;;;;1.60;1.60;;;;;;;;;;5033006;28;20574;-69
2022/05/10 04:12:09;;;;;;;1.47;1.47;;;23.60;64.50;;;;;;5031646;28;20212;-69
2022/05/10 04:14:34;;;;;;;1.10;1.10;;;23.30;71.90;;;;;;5050347;28;20833;-69
2022/05/10 04:17:00;;;;;;;1.27;1.27;;;;;;;;;;5051259;28;20184;-69
2022/05/10 04:19:26;;;;;;;1.30;1.30;;;;;;;;;;5051199;28;20211;-69
2022/05/10 04:21:52;;;;;;;1.17;1.17;;;;;;;;;;5051385;28;20434;-69
2022/05/10 04:24:18;;;;;;;1.53;1.20;;;;;;;;;;5035199;28;20471;-69
2022/05/10 04:26:44;;;;;;;1.40;1.40;;;;;;;;;;5031351;28;20173;-69
2022/05/10 04:29:10;;;;;;;1.20;1.20;;;23.30;65.10;;;;;;5029807;28;20432;-69
2022/05/10 04:31:36;;;;;;;1.30;1.30;;;;;;;;;;5033756;28;20184;-69
2022/05/10 04:34:02;;;;;;;1.33;1.33;;;;;;;;;;5049659;28;20180;-69
2022/05/10 04:36:28;;;;;;;1.20;1.20;;;;;;;;;;5050879;28;20466;-69
2022/05/10 04:38:54;;;;;;;2.00;1.90;;;;;;;;;;5049714;28;20426;-69
2022/05/10 04:41:30;;;;;;;1.80;1.70;;;23.30;54.90;;;;;;5050686;28;20399;-69
2022/05/10 04:44:07;;;;;;;1.90;1.80;;;21.40;59.60;;;;;;5041741;28;20180;-69
2022/05/10 04:46:35;;;;;;;1.85;1.75;;;;;;;;;;5050305;28;20480;-69
2022/05/10 04:49:02;;;;;;;1.90;1.80;;;24.10;62.90;;;;;;5050250;28;20454;-69
2022/05/10 04:51:28;;;;;;;2.07;2.00;;;23.40;56.50;;;;;;5048579;28;20419;-69
2022/05/10 04:53:54;;;;;;;2.33;2.23;;;;;;;;;;5030915;28;20541;-69
2022/05/10 04:56:20;;;;;;;2.10;2.00;;;;;;;;;;5031011;28;20459;-69
2022/05/10 04:58:47;;;;;;;2.70;2.60;;;;;;;;;;5030549;28;20458;-69
2022/05/10 05:01:14;;;;;;;2.77;2.57;;;23.30;57.20;;;;;;5037140;28;20496;-69
2022/05/10 05:03:47;;;;;;;2.10;2.10;;;23.30;59.70;;;;;;5046204;28;20541;-69
2022/05/10 05:06:13;;;;;;;2.30;2.10;;;;;;;;;;5050160;28;20511;-69
2022/05/10 05:08:39;;;;;;;2.50;2.40;;;;;;;;;;5050358;28;20230;-69
2022/05/10 05:11:06;;;;;;;2.33;2.23;;;;;;;;;;5041393;28;20415;-69
2022/05/10 05:13:32;;;;;;;2.57;2.47;;;;;;;;;;5039606;28;20432;-69
2022/05/10 05:15:58;;;;;;;2.30;2.23;;;;;;;;;;5030229;28;20463;-69
2022/05/10 05:18:24;;;;;;;2.73;2.53;;;;;;;;;;5030298;28;20565;-69
2022/05/10 05:20:50;;;;;;;2.70;2.60;;;23.40;64.10;;;;;;5043428;28;20430;-69
2022/05/10 05:23:18;;;;;;;3.20;3.00;;;23.10;56.20;;;;;;5050452;28;20416;-69
2022/05/10 05:25:44;;;;;;;3.87;3.60;;;;;;;;;;5050194;28;20411;-69
2022/05/10 05:28:10;;;;;;;3.83;3.63;;;;;;;;;;5050514;28;20467;-69
2022/05/10 05:30:37;;;;;;;4.27;4.00;;;;;;;;;;5050512;28;20254;-69
2022/05/10 05:33:03;;;;;;;4.03;3.80;;;;;;;;;;5050566;28;20410;-69
2022/05/10 05:35:29;;;;;;;4.13;3.93;;;;;;;;;;5050421;28;20458;-69
2022/05/10 05:37:55;;;;;;;4.23;3.93;;;;;;;;;;5050366;28;20791;-69
2022/05/10 05:40:22;;;;;;;4.57;4.27;;;23.20;55.70;;;;;;5050297;28;20544;-69
2022/05/10 05:42:49;;;;;;;4.23;3.93;;;23.40;55.60;;;;;;5050286;28;20929;-69
2022/05/10 05:45:17;;;;;;;4.67;4.37;;;22.60;55.40;;;;;;5050029;28;20410;-69
2022/05/10 05:47:43;;;;;;;4.80;4.50;;;22.60;66.30;;;;;;5049900;28;20476;-69
2022/05/10 05:50:13;;;;;;;5.47;4.97;;;22.60;68.70;;;;;;5049976;28;20424;-69
2022/05/10 05:52:39;;;;;;;4.00;3.80;;;;;;;;;;5049777;28;20308;-69
2022/05/10 05:55:05;;;;;;;4.55;4.35;;;22.70;54.50;;;;;;5049923;28;20224;-69
2022/05/10 05:57:32;;;;;;;8.70;4.63;;;;;;;;;;5049732;28;20179;-69
2022/05/10 06:00:01;;;;;;;4.70;4.47;;;;;;;;;;5049060;28;20496;-69
2022/05/10 06:02:27;;;;;;;4.70;4.33;;;22.60;54.90;;;;;;5049670;28;20410;-69
2022/05/10 06:04:53;;;;;;;4.33;4.13;;;22.50;60.10;;;;;;5049857;28;20759;-69
2022/05/10 06:07:19;;;;;;;4.37;4.07;;;22.30;69.40;;;;;;5049769;28;20460;-69
2022/05/10 06:09:47;;;;;;;5.70;4.70;;;22.50;63.90;;;;;;5049836;28;20616;-69
2022/05/10 06:12:15;;;;;;;4.70;4.40;;;22.60;56.40;;;;;;5049667;28;20418;-69
2022/05/10 06:14:41;;;;;;;7.90;4.50;;;22.50;55.00;;;;;;5049727;28;20236;-68
2022/05/10 06:17:07;;;;;;;4.60;4.23;;;22.40;57.40;;;;;;5049507;28;20402;-68
2022/05/10 06:19:36;;;;;;;5.00;4.53;;;22.50;63.80;;;;;;5049414;28;20600;-68
2022/05/10 06:22:02;;;;;;;4.53;4.22;;;22.50;56.20;;;;;;5029631;28;20431;-68
2022/05/10 06:24:28;;;;;;;5.03;4.63;;;;;;;;;;5029766;28;20177;-68
2022/05/10 06:26:54;;;;;;;5.10;4.63;;;;;;;;;;5029626;28;20469;-68
2022/05/10 06:29:20;;;;;;;4.90;4.60;;;;;;;;;;5029652;28;20462;-68
2022/05/10 06:31:47;;;;;;;7.82;5.22;;;22.10;57.60;;;;;;5029642;28;20775;-68
2022/05/10 06:34:13;;;;;;;5.30;5.00;;;22.40;57.00;;;;;;5029688;28;20245;-68
2022/05/10 06:36:40;;;;;;;5.17;4.77;;;;;;;;;;5029321;28;20461;-68
2022/05/10 06:39:06;;;;;;;4.97;4.47;;;;;;;;;;5038947;28;20887;-68
2022/05/10 06:41:32;;;;;;;4.53;4.33;;;22.40;57.30;;;;;;5049673;28;20762;-68
2022/05/10 06:43:59;;;;;;;4.90;4.60;;;22.40;57.00;;;;;;5049640;28;20410;-68
2022/05/10 06:46:25;;;;;;;5.63;5.23;;;;;;;;;;5049582;28;20415;-68
2022/05/10 06:48:50;;;;;;;4.70;4.50;;;22.40;59.30;;;;;;5049321;28;20437;-68
2022/05/10 06:51:18;;;;;;;10.03;4.90;;;21.70;57.40;;;;;;5049451;28;20793;-68
2022/05/10 06:53:44;;;;;;;4.60;4.20;;;22.40;55.90;;;;;;5049135;28;20172;-70
2022/05/10 06:56:11;;;;;;;5.07;4.73;;;22.40;56.90;;;;;;5043743;28;20531;-66
2022/05/10 06:58:37;;;;;;;4.60;4.40;;;;;;;;;;5039335;28;20461;-68
2022/05/10 07:01:05;;;;;;;4.23;4.03;;;22.50;63.00;;;;;;5048471;28;20410;-68
2022/05/10 07:03:34;;;;;;;3.73;3.53;;;22.50;59.30;;;;;;5036521;28;20434;-68
2022/05/10 07:06:01;;;;;;;3.37;3.07;;;22.50;57.80;;;;;;5028809;28;20576;-68
2022/05/10 07:08:28;;;;;;;3.57;3.40;;;;;;;;;;5028839;28;20554;-68
2022/05/10 07:10:54;;;;;;;3.43;3.33;;;22.50;62.80;;;;;;5029954;28;20407;-70
2022/05/10 07:13:23;;;;;;;3.00;2.90;;;22.60;57.80;;;;;;5035656;28;20522;-68
2022/05/10 07:15:49;;;;;;;3.13;3.03;;;;;;;;;;5039054;28;20589;-68
2022/05/10 07:18:16;;;;;;;2.90;2.80;;;22.60;57.80;;;;;;5052324;28;20448;-68
2022/05/10 07:20:43;;;;;;;4.20;3.90;;;;;;;;;;5048097;28;20775;-68
2022/05/10 07:23:09;;;;;;;3.90;3.60;;;22.80;63.20;;;;;;5052470;28;20962;-68
2022/05/10 07:25:35;;;;;;;3.00;2.90;;;;;;;;;;5052319;28;20168;-68
2022/05/10 07:28:02;;;;;;;3.20;3.10;;;;;;;;;;5052266;28;20478;-67
2022/05/10 07:30:28;;;;;;;3.63;3.42;;;22.70;56.80;;;;;;5050934;28;20677;-67
2022/05/10 07:32:54;;;;;;;4.70;4.30;;;;;;;;;;5035109;28;20230;-71
2022/05/10 07:38:06;;;;;;;4.40;4.10;;;22.90;57.20;;;;;;5051604;28;20932;-69
2022/05/10 07:40:32;;;;;;;4.83;4.43;;;22.70;71.20;;;;;;5050140;28;20208;-68
2022/05/10 07:42:58;;;;;;;4.50;4.20;;;22.90;77.30;;;;;;5043876;28;20423;-68
2022/05/10 07:45:24;;;;;;;4.77;4.47;;;;;;;;;;5050063;28;20241;-68
2022/05/10 07:47:50;;;;;;;4.00;3.80;;;;;;;;;;5048213;28;20209;-69
2022/05/10 07:50:16;;;;;;;6.40;4.80;;;;;;;;;;5050696;28;20438;-69
2022/05/10 07:52:42;;;;;;;4.67;4.47;;;;;;;;;;5049676;28;20903;-68
2022/05/10 07:55:09;;;;;;;3.17;3.07;;;23.00;58.00;;;;;;5031582;28;20455;-68
2022/05/10 07:57:35;;;;;;;4.93;4.57;;;;;;;;;;5046152;28;20781;-67
2022/05/10 08:00:01;;;;;;;4.03;3.83;;;;;;;;;;5051158;28;20448;-70
2022/05/10 08:02:27;;;;;;;3.80;3.70;;;;;;;;;;5049936;28;20861;-69
2022/05/10 08:04:54;;;;;;;4.83;4.33;;;;;;;;;;5044776;28;20422;-71
2022/05/10 08:07:20;;;;;;;3.83;3.63;;;;;;;;;;5051684;28;20413;-70
2022/05/10 08:09:46;;;;;;;11.02;4.82;;;;;;;;;;5036009;28;20550;-70
2022/05/10 08:12:12;;;;;;;4.10;3.80;;;;;;;;;;5031545;28;20283;-70
2022/05/10 08:14:38;;;;;;;4.63;3.50;;;;;;;;;;5031424;28;20188;-67
2022/05/10 08:17:04;;;;;;;4.70;3.78;;;;;;;;;;5031574;28;20431;-67
2022/05/10 08:19:30;;;;;;;5.17;4.13;;;;;;;;;;5031232;28;20751;-67
2022/05/10 08:21:58;;;;;;;4.33;4.03;;;23.30;65.00;;;;;;5032426;28;20427;-67
2022/05/10 08:24:24;;;;;;;4.70;4.33;;;;;;;;;;5032679;28;20177;-67
2022/05/10 08:26:50;;;;;;;4.53;4.33;;;;;;;;;;5031436;28;20755;-66
2022/05/10 08:29:16;;;;;;;4.30;3.90;;;;;;;;;;5031275;28;20423;-68
2022/05/10 08:31:42;;;;;;;4.47;4.27;;;;;;;;;;5031156;28;20444;-67
2022/05/10 08:34:08;;;;;;;3.50;3.30;;;23.40;80.80;;;;;;5031099;28;20391;-67
2022/05/10 08:36:34;;;;;;;5.13;4.00;;;;;;;;;;5043407;28;20484;-70
2022/05/10 08:39:00;;;;;;;4.63;4.33;;;;;;;;;;5050983;28;20337;-68
2022/05/10 08:41:52;;;;;;;3.53;3.33;;;23.30;60.30;;;;;;5050653;28;20512;-68
2022/05/10 08:44:28;;;;;;;3.72;3.53;;;23.30;58.60;;;;;;5048822;28;20442;-67
2022/05/10 08:46:58;;;;;;;4.17;3.87;;;23.40;65.70;;;;;;5033956;28;20179;-69
2022/05/10 08:49:35;;;;;;;4.35;3.65;;;23.40;58.10;;;;;;5039053;28;20519;-68
2022/05/10 08:52:03;;;;;;;4.23;4.03;;;23.40;65.90;;;;;;5040433;28;20213;-68
2022/05/10 08:54:30;;;;;;;3.85;3.63;;;23.40;57.50;;;;;;5050555;28;20421;-68
2022/05/10 08:57:29;;;;;;;3.50;3.20;;;23.10;59.90;;;;;;5050360;28;20226;-68
2022/05/10 09:00:40;;;;;;;4.95;3.70;;;23.50;54.90;;;;;;5050770;28;20519;-68
2022/05/10 09:03:17;;;;;;;4.00;3.70;;;23.40;54.60;;;;;;5044665;28;20354;-68
2022/05/10 09:05:44;;;;;;;4.20;3.77;;;23.30;57.20;;;;;;5030585;28;20431;-68
2022/05/10 09:08:10;;;;;;;3.83;3.67;;;;;;;;;;5030567;28;20431;-68
2022/05/10 09:10:59;;;;;;;4.45;3.67;;;24.00;54.80;;;;;;5030411;28;20435;-71
2022/05/10 09:13:25;;;;;;;3.83;3.63;;;;;;;;;;5031856;28;20218;-70
2022/05/10 09:16:09;;;;;;;3.80;3.50;;;22.90;54.50;;;;;;5043043;28;20470;-71
2022/05/10 09:18:34;;;;;;;4.70;4.30;;;;;;;;;;5049975;28;20557;-70
2022/05/10 09:21:26;;;;;;;3.20;3.00;;;24.00;60.90;;;;;;5039561;28;20914;-69
2022/05/10 09:24:15;;;;;;;3.75;3.55;;;23.30;55.80;;;;;;5048109;28;20682;-68
2022/05/10 09:26:47;;;;;;;4.70;3.20;;;23.20;58.60;;;;;;5049505;28;20668;-69
2022/05/10 09:29:12;;;;;;;3.67;3.37;;;;;;;;;;5044636;28;20534;-70
2022/05/10 09:37:33;;;;;;;3.55;3.38;;;23.50;60.30;;;;;;5040402;28;20421;-69
2022/05/10 09:39:59;;;;;;;3.85;3.65;;;;;;;;;;5035295;28;20219;-68
2022/05/10 09:42:46;;;;;;;7.50;3.57;;;23.50;58.50;;;;;;5035165;28;20806;-71
2022/05/10 09:45:12;;;;;;;4.03;3.83;;;;;;;;;;5031157;28;20541;-72
2022/05/10 09:47:39;;;;;;;3.93;3.73;;;;;;;;;;5029648;28;20922;-72
2022/05/10 09:50:12;;;;;;;4.07;3.87;;;23.70;67.30;;;;;;5049688;28;20488;-71
2022/05/10 09:52:38;;;;;;;3.60;3.40;;;;;;;;;;5050157;28;20470;-73
2022/05/10 09:55:12;;;;;;;3.53;3.30;;;23.50;54.80;;;;;;5044234;28;20517;-67
2022/05/10 09:57:39;;;;;;;3.70;3.50;;;23.50;57.80;;;;;;5030765;28;20415;-68
2022/05/10 10:00:08;;;;;;;3.73;3.43;;;23.60;57.70;;;;;;5030023;28;20463;-69
2022/05/10 10:02:38;;;;;;;3.40;3.30;;;23.90;63.90;;;;;;5029882;28;20419;-69
2022/05/10 10:05:28;;;;;;;3.63;3.43;;;23.50;54.80;;;;;;5030334;28;20427;-70
2022/05/10 10:07:56;;;;;;;3.17;2.83;;;23.50;65.20;;;;;;5047566;28;20429;-70
2022/05/10 10:10:37;;;;;;;4.73;3.10;;;23.50;54.80;;;;;;5046466;28;20481;-69
2022/05/10 10:13:29;;;;;;;4.53;3.40;;;23.30;66.40;;;;;;5037890;28;21006;-69
2022/05/10 10:15:55;;;;;;;3.60;3.30;;;23.70;56.90;;;;;;5048775;28;20492;-69
2022/05/10 10:19:01;;;;;;;3.57;3.33;;;23.40;75.60;;;;;;5049201;28;20911;-69
2022/05/10 10:21:41;;;;;;;3.40;3.20;;;23.50;66.90;;;;;;5046547;28;20434;-69
2022/05/10 10:24:07;;;;;;;3.87;3.70;;;;;;;;;;5046135;28;20434;-69
2022/05/10 10:26:46;;;;;;;3.23;3.03;;;23.50;54.50;;;;;;5036289;28;20411;-69
2022/05/10 10:29:30;;;;;;;3.73;3.53;;;23.40;54.30;;;;;;5028754;28;20431;-69
2022/05/10 10:32:04;;;;;;;3.73;3.47;;;23.60;56.80;;;;;;5036033;28;20818;-69
2022/05/10 10:35:04;;;;;;;3.00;2.90;;;23.50;54.50;;;;;;5047368;28;20513;-69
2022/05/10 10:37:41;;;;;;;2.93;2.83;;;23.50;54.40;;;;;;5048001;28;20426;-69
2022/05/10 10:40:27;;;;;;;3.40;3.20;;;23.50;54.50;;;;;;5047182;28;21013;-69
2022/05/10 10:43:26;;;;;;;2.90;2.80;;;24.00;54.70;;;;;;5031741;28;20430;-69
2022/05/10 10:45:57;;;;;;;4.17;3.10;;;23.70;59.70;;;;;;5039131;28;20522;-69
2022/05/10 10:48:30;;;;;;;3.60;3.30;;;23.50;54.40;;;;;;5036699;28;20441;-69
2022/05/10 10:50:57;;;;;;;2.90;2.70;;;23.60;67.20;;;;;;5046526;28;20513;-69
2022/05/10 10:53:25;;;;;;;2.97;2.80;;;23.50;64.40;;;;;;5049190;28;20518;-69
2022/05/10 10:56:08;;;;;;;7.57;3.70;;;23.30;54.40;;;;;;5050776;28;20461;-69
2022/05/10 10:58:34;;;;;;;3.90;3.13;;;;;;;;;;5052880;28;20426;-69
2022/05/10 11:01:20;;;;;;;3.30;3.10;;;23.50;54.50;;;;;;5052606;28;20544;-69
2022/05/10 11:04:07;;;;;;;3.37;3.10;;;23.50;56.80;;;;;;5052935;28;20509;-69
2022/05/10 11:06:57;;;;;;;3.50;3.20;;;23.30;66.40;;;;;;5065236;28;20453;-69
2022/05/10 11:09:23;;;;;;;3.47;3.27;;;;;;;;;;5054926;28;20834;-69
2022/05/10 11:12:13;;;;;;;3.27;2.97;;;23.50;54.60;;;;;;5052615;28;20468;-69
2022/05/10 11:14:50;;;;;;;3.30;3.20;;;23.50;56.90;;;;;;5052222;28;20422;-69
2022/05/10 11:17:38;;;;;;;2.70;2.60;;;23.60;64.90;;;;;;5051777;28;20421;-69
2022/05/10 11:20:42;;;;;;;3.37;3.17;;;23.50;54.60;;;;;;5052621;28;20468;-69
2022/05/10 11:23:10;;;;;;;2.70;2.50;;;;;;;;;;5042088;28;20462;-69
2022/05/10 11:26:00;;;;;;;3.33;3.10;;;23.20;60.90;;;;;;5052389;28;20502;-69
2022/05/10 11:28:54;;;;;;;5.03;3.27;;;23.50;54.30;;;;;;5052277;28;20414;-69
2022/05/10 11:32:06;;;;;;;3.17;3.07;;;23.50;54.30;;;;;;5052056;28;20410;-69
2022/05/10 11:34:56;;;;;;;3.20;2.90;;;23.60;59.30;;;;;;5028216;28;20416;-69
2022/05/10 11:37:28;;;;;;;2.92;2.83;;;23.50;57.00;;;;;;5052117;28;20818;-68
2022/05/10 11:40:35;;;;;;;3.67;3.47;;;23.50;54.40;;;;;;5052122;28;20184;-68
2022/05/10 11:43:22;;;;;;;2.90;2.80;;;24.30;59.40;;;;;;5024684;28;20910;-68
2022/05/10 11:46:25;;;;;;;3.10;2.90;;;23.70;57.30;;;;;;5051540;28;20422;-68
2022/05/10 11:48:50;;;;;;;3.07;2.87;;;;;;;;;;5051193;28;20430;-68
2022/05/10 11:51:43;;;;;;;2.83;2.63;;;23.60;54.40;;;;;;5051747;28;20751;-69
2022/05/10 11:54:30;;;;;;;2.87;2.53;;;23.60;54.50;;;;;;5051284;28;20574;-69
2022/05/10 11:56:56;;;;;;;2.43;2.33;;;;;;;;;;5051033;28;20418;-69
2022/05/10 11:59:24;;;;;;;3.10;3.00;;;23.10;59.80;;;;;;5049034;28;20973;-69
2022/05/10 12:01:52;;;;;;;2.70;2.60;;;23.60;62.20;;;;;;5051930;28;20406;-69
2022/05/10 12:04:39;;;;;;;2.70;2.60;;;23.60;54.30;;;;;;5051703;28;20421;-69
2022/05/10 12:07:25;;;;;;;3.30;3.10;;;23.40;69.00;;;;;;5051131;28;20942;-69
2022/05/10 12:09:56;;;;;;;3.53;3.00;;;23.60;54.40;;;;;;5050252;28;20450;-69
2022/05/10 12:12:31;;;;;;;5.23;3.43;;;23.60;54.60;;;;;;5051809;28;20412;-68
2022/05/10 12:24:29;;;;;;;3.10;3.00;;;23.60;59.70;;;;;;5040056;28;20728;-72
2022/05/10 12:26:59;;;;;;;4.85;3.00;;;23.70;56.90;;;;;;5048447;28;20434;-70
2022/05/10 12:29:39;;;;;;;3.30;3.10;;;23.80;54.80;;;;;;5048463;28;20465;-70
2022/05/10 12:32:09;;;;;;;2.70;2.60;;;23.80;71.80;;;;;;5050402;28;20461;-67
2022/05/10 12:34:38;;;;;;;3.00;2.80;;;23.90;65.70;;;;;;5052015;28;20422;-75
2022/05/10 12:39:56;;;;;;;3.20;3.10;;;24.10;56.10;;;;;;5045378;28;20204;-69
2022/05/10 12:42:32;;;;;;;3.70;3.50;;;23.90;54.50;;;;;;5051147;28;20501;-72
2022/05/10 12:45:25;;;;;;;3.30;3.20;;;23.90;54.40;;;;;;5049577;28;20441;-70
2022/05/10 12:48:26;;;;;;;6.40;3.67;;;23.50;54.20;;;;;;5050949;28;20488;-69
2022/05/10 12:50:58;;;;;;;5.70;3.80;;;23.90;54.60;;;;;;5051071;28;20438;-70
2022/05/10 12:53:43;;;;;;;3.10;3.00;;;24.00;59.50;;;;;;5050939;28;20422;-69
2022/05/10 12:56:18;;;;;;;3.42;3.28;;;24.00;54.50;;;;;;5050265;28;20561;-67
2022/05/10 12:58:48;;;;;;;3.40;3.10;;;23.90;65.10;;;;;;5051028;28;20167;-69
2022/05/10 13:01:17;;;;;;;2.87;2.67;;;23.90;56.80;;;;;;5050441;28;20457;-74
2022/05/10 13:03:49;;;;;;;3.20;3.00;;;24.00;57.30;;;;;;5051053;28;20569;-73
2022/05/10 13:06:47;;;;;;;3.10;2.90;;;24.00;54.30;;;;;;5050674;28;20527;-72
2022/05/10 13:09:29;;;;;;;2.80;2.60;;;24.00;54.30;;;;;;5050834;28;20509;-73
2022/05/10 13:11:58;;;;;;;3.20;3.00;;;24.10;57.00;;;;;;5051057;28;20408;-69
2022/05/10 13:14:24;;;;;;;3.00;2.90;;;24.00;56.70;;;;;;5050621;28;20394;-72
2022/05/10 13:16:52;;;;;;;2.70;2.60;;;24.00;56.60;;;;;;5050448;28;20522;-71
2022/05/10 13:19:20;;;;;;;2.80;2.70;;;24.10;57.00;;;;;;5050343;28;20457;-75
2022/05/10 13:21:46;;;;;;;3.03;2.77;;;24.10;62.30;;;;;;5050403;28;20419;-69
2022/05/10 13:24:15;;;;;;;3.23;3.03;;;24.00;56.80;;;;;;5050666;28;20502;-72
2022/05/10 13:27:20;;;;;;;3.17;2.97;;;24.00;54.40;;;;;;5050170;28;20463;-70
2022/05/10 13:29:50;;;;;;;2.60;2.40;;;24.00;56.80;;;;;;5043782;28;20556;-68
2022/05/10 13:32:38;;;;;;;2.97;2.77;;;23.80;56.20;;;;;;5050305;28;20623;-70
2022/05/10 13:35:20;;;;;;;3.00;2.80;;;24.10;56.80;;;;;;5050332;28;20829;-72
2022/05/10 13:38:03;;;;;;;3.67;3.47;;;23.60;54.00;;;;;;5049825;28;20410;-72
2022/05/10 13:40:31;;;;;;;2.93;2.73;;;24.00;71.60;;;;;;5050305;28;20434;-71
2022/05/10 13:43:05;;;;;;;2.90;2.70;;;23.90;69.40;;;;;;5030483;28;20419;-69
2022/05/10 13:45:32;;;;;;;3.00;2.90;;;24.20;57.50;;;;;;5030014;28;20872;-73
2022/05/10 13:48:06;;;;;;;3.07;2.97;;;24.30;65.20;;;;;;5029988;28;20415;-71
2022/05/10 13:50:33;;;;;;;2.77;2.67;;;;;;;;;;5038066;28;20441;-71
2022/05/10 13:53:01;;;;;;;2.67;2.57;;;24.10;56.90;;;;;;5050096;28;20434;-71
2022/05/10 13:55:29;;;;;;;2.97;2.83;;;24.40;57.00;;;;;;5049623;28;20485;-71
2022/05/10 13:58:04;;;;;;;2.53;2.43;;;24.10;57.10;;;;;;5049843;28;20422;-71
2022/05/10 14:00:37;;;;;;;2.70;2.60;;;24.10;54.30;;;;;;5049828;28;20437;-71
2022/05/10 14:03:08;;;;;;;2.63;2.50;;;24.20;59.30;;;;;;5050145;28;20434;-71
2022/05/10 14:05:34;;;;;;;3.03;2.73;;;24.30;83.90;;;;;;5049717;28;20493;-70
2022/05/10 14:08:24;;;;;;;2.47;2.37;;;24.40;82.20;;;;;;5049794;28;20509;-71